Time;durP1;ratioP1;P1;durP2;ratioP2;P2;SDS_P1;SDS_P2;PMS_P1;PMS_P2;Temp;Humidity;BMP_temperature;BMP_pressure;BME280_temperature;BME280_humidity;BME280_pressure;Samples;Min_cycle;Max_cycle;Signal;HPM_P1;HPM_P2
2022/04/12 00:00:34;;;;;;;14.05;7.80;;;8.80;85.80;;;;;;5025915;28;20112;-46
2022/04/12 00:02:59;;;;;;;11.27;6.53;;;8.70;86.50;;;;;;5012510;28;20081;-44
2022/04/12 00:05:25;;;;;;;10.65;6.75;;;8.70;86.70;;;;;;5028998;28;20073;-48
2022/04/12 00:07:51;;;;;;;9.35;6.28;;;8.60;86.70;;;;;;5028757;28;20099;-45
2022/04/12 00:10:17;;;;;;;9.73;6.60;;;8.60;87.40;;;;;;5027974;28;20124;-49
2022/04/12 00:12:43;;;;;;;12.57;6.97;;;8.60;87.80;;;;;;5029881;28;20029;-49
2022/04/12 00:15:10;;;;;;;10.07;6.50;;;8.60;88.40;;;;;;5028288;28;20045;-51
2022/04/12 00:20:21;;;;;;;9.90;6.88;;;8.50;88.70;;;;;;5024885;28;20046;-51
2022/04/12 00:22:47;;;;;;;9.35;6.18;;;8.40;89.00;;;;;;5023605;28;20120;-48
2022/04/12 00:25:13;;;;;;;11.98;6.95;;;8.40;90.20;;;;;;5023707;28;20064;-51
2022/04/12 00:27:41;;;;;;;10.20;6.55;;;8.40;90.20;;;;;;5024279;28;20735;-44
2022/04/12 00:30:08;;;;;;;12.38;6.70;;;8.40;90.40;;;;;;5029627;28;20041;-47
2022/04/12 00:32:35;;;;;;;12.45;7.20;;;8.30;90.40;;;;;;5027946;28;20038;-47
2022/04/12 00:35:01;;;;;;;10.70;6.78;;;8.30;91.00;;;;;;5030005;28;20049;-48
2022/04/12 00:37:27;;;;;;;11.23;7.00;;;8.20;91.00;;;;;;5027562;28;20045;-50
2022/04/12 00:39:53;;;;;;;9.98;6.68;;;8.20;91.00;;;;;;5028999;28;20037;-49
2022/04/12 00:42:19;;;;;;;9.30;6.03;;;8.10;92.00;;;;;;5022062;28;20210;-47
2022/04/12 00:44:46;;;;;;;11.05;6.45;;;8.10;91.60;;;;;;5019552;28;20514;-43
2022/04/12 00:47:13;;;;;;;9.32;6.57;;;8.00;91.90;;;;;;5028470;28;20045;-47
2022/04/12 00:49:39;;;;;;;9.68;6.25;;;8.00;92.10;;;;;;5025446;28;20045;-48
2022/04/12 00:52:06;;;;;;;12.77;6.40;;;8.00;92.50;;;;;;5024470;28;20080;-50
2022/04/12 00:54:33;;;;;;;9.60;6.28;;;7.90;92.90;;;;;;5023039;28;20391;-45
2022/04/12 00:57:01;;;;;;;10.90;6.75;;;7.90;93.20;;;;;;5025980;28;20490;-47
2022/04/12 00:59:27;;;;;;;9.30;5.88;;;7.80;93.20;;;;;;5025535;28;20136;-38
2022/04/12 01:01:52;;;;;;;12.00;6.72;;;7.80;93.30;;;;;;5020485;28;20038;-50
2022/04/12 01:04:19;;;;;;;10.45;5.85;;;7.80;93.20;;;;;;5026293;28;20025;-49
2022/04/12 01:06:46;;;;;;;9.50;6.35;;;7.80;93.50;;;;;;5024673;28;20501;-50
2022/04/12 01:09:12;;;;;;;10.25;6.57;;;7.80;93.40;;;;;;5023553;28;20049;-46
2022/04/12 01:11:39;;;;;;;12.02;7.07;;;7.70;93.60;;;;;;5009374;28;20076;-50
2022/04/12 01:14:06;;;;;;;9.52;6.35;;;7.70;94.20;;;;;;5027392;28;20041;-49
2022/04/12 01:16:31;;;;;;;9.60;6.47;;;7.70;93.90;;;;;;5022444;28;20051;-51
2022/04/12 01:18:57;;;;;;;10.25;6.13;;;7.60;93.90;;;;;;5028236;28;20403;-48
2022/04/12 01:21:23;;;;;;;10.80;6.75;;;7.60;94.20;;;;;;5023731;28;20124;-49
2022/04/12 01:23:54;;;;;;;11.60;7.22;;;7.60;94.10;;;;;;5010925;28;20036;-46
2022/04/12 01:26:20;;;;;;;9.02;6.00;;;7.60;94.50;;;;;;5007173;28;20045;-48
2022/04/12 01:28:46;;;;;;;10.52;7.18;;;7.50;94.50;;;;;;5024696;28;20041;-47
2022/04/12 01:31:11;;;;;;;12.63;6.88;;;7.50;94.70;;;;;;5021138;28;20048;-45
2022/04/12 01:33:37;;;;;;;9.20;6.25;;;7.50;94.50;;;;;;5026837;28;20037;-49
2022/04/12 01:36:03;;;;;;;10.93;6.55;;;7.50;94.50;;;;;;5019284;28;20109;-42
2022/04/12 01:38:29;;;;;;;11.07;7.00;;;7.50;94.80;;;;;;5029046;28;20401;-48
2022/04/12 01:40:54;;;;;;;8.65;5.93;;;7.50;94.70;;;;;;5013624;28;20038;-50
2022/04/12 01:43:20;;;;;;;10.55;6.55;;;7.50;94.80;;;;;;5027495;28;20099;-47
2022/04/12 01:45:46;;;;;;;9.60;6.50;;;7.40;94.90;;;;;;5024778;28;20045;-48
2022/04/12 01:48:11;;;;;;;11.35;6.35;;;7.40;94.70;;;;;;4988581;28;20124;-51
2022/04/12 01:50:37;;;;;;;9.63;6.32;;;7.40;94.60;;;;;;5003713;28;20111;-50
2022/04/12 01:53:03;;;;;;;8.10;5.90;;;7.40;94.80;;;;;;5009270;28;20501;-44
2022/04/12 01:55:29;;;;;;;8.93;5.68;;;7.40;94.80;;;;;;5028375;28;20458;-48
2022/04/12 01:57:54;;;;;;;11.68;6.10;;;7.30;95.10;;;;;;5025932;28;20130;-44
2022/04/12 02:00:20;;;;;;;9.35;5.57;;;7.30;95.30;;;;;;5025127;28;20121;-47
2022/04/12 02:02:46;;;;;;;10.45;6.15;;;7.30;95.20;;;;;;5023510;28;20026;-47
2022/04/12 02:05:11;;;;;;;15.32;6.03;;;7.30;95.40;;;;;;5026691;28;20440;-49
2022/04/12 02:07:37;;;;;;;8.90;5.63;;;7.30;95.30;;;;;;5027330;28;20038;-46
2022/04/12 02:10:04;;;;;;;8.20;5.03;;;7.30;95.30;;;;;;5028119;28;20041;-44
2022/04/12 02:12:29;;;;;;;8.57;5.53;;;7.30;95.60;;;;;;5023283;28;20394;-47
2022/04/12 02:14:56;;;;;;;11.18;5.97;;;7.20;95.70;;;;;;5025488;28;20142;-45
2022/04/12 02:17:22;;;;;;;11.77;5.60;;;7.20;95.90;;;;;;5009494;28;20041;-46
2022/04/12 02:19:48;;;;;;;10.18;5.68;;;7.20;95.90;;;;;;5027504;28;20443;-46
2022/04/12 02:22:14;;;;;;;9.50;5.85;;;7.20;96.10;;;;;;5007964;28;20045;-47
2022/04/12 02:24:40;;;;;;;7.95;5.07;;;7.20;96.00;;;;;;5026038;28;20045;-48
2022/04/12 02:27:05;;;;;;;10.25;5.95;;;7.20;96.00;;;;;;5024594;28;20498;-50
2022/04/12 02:29:31;;;;;;;8.65;5.68;;;7.20;95.90;;;;;;5028996;28;20064;-49
2022/04/12 02:31:57;;;;;;;9.80;5.95;;;7.20;96.00;;;;;;5009100;28;20075;-49
2022/04/12 02:34:22;;;;;;;8.80;5.32;;;7.20;96.20;;;;;;5027519;28;20069;-47
2022/04/12 02:36:49;;;;;;;9.43;5.15;;;7.20;95.80;;;;;;5025386;28;20494;-46
2022/04/12 02:39:15;;;;;;;9.00;5.75;;;7.20;95.90;;;;;;5028367;28;20486;-51
2022/04/12 02:41:40;;;;;;;10.73;5.78;;;7.20;96.10;;;;;;5019853;28;20121;-48
2022/04/12 02:44:06;;;;;;;8.80;5.43;;;7.20;96.30;;;;;;5024619;28;20076;-44
2022/04/12 02:46:32;;;;;;;9.68;5.97;;;7.20;96.30;;;;;;5021897;28;20057;-48
2022/04/12 02:48:58;;;;;;;11.70;6.07;;;7.20;96.10;;;;;;5019002;28;20061;-48
2022/04/12 02:51:23;;;;;;;8.48;5.68;;;7.20;96.10;;;;;;5009129;28;20053;-41
2022/04/12 02:53:49;;;;;;;9.80;5.95;;;7.20;96.10;;;;;;5022538;28;20419;-47
2022/04/12 02:56:14;;;;;;;10.07;5.28;;;7.20;96.10;;;;;;5024735;28;20061;-47
2022/04/12 02:58:40;;;;;;;8.98;5.85;;;7.20;96.10;;;;;;5009905;28;20064;-48
2022/04/12 03:01:06;;;;;;;8.05;5.07;;;7.20;96.20;;;;;;5021827;28;20120;-47
2022/04/12 03:03:32;;;;;;;8.55;5.60;;;7.20;96.30;;;;;;5028542;28;20045;-49
2022/04/12 03:05:58;;;;;;;9.55;5.47;;;7.20;96.10;;;;;;5022411;28;20450;-49
2022/04/12 03:08:24;;;;;;;9.15;5.30;;;7.20;96.10;;;;;;5023743;28;20049;-48
2022/04/12 03:10:49;;;;;;;9.13;5.85;;;7.20;96.10;;;;;;5023824;28;20037;-49
2022/04/12 03:13:15;;;;;;;9.95;5.32;;;7.20;96.10;;;;;;5025256;28;20227;-51
2022/04/12 03:15:41;;;;;;;10.73;6.55;;;7.20;96.40;;;;;;5003759;28;20588;-48
2022/04/12 03:18:06;;;;;;;9.20;5.47;;;7.20;96.40;;;;;;5028438;28;20191;-45
2022/04/12 03:20:32;;;;;;;7.47;5.00;;;7.20;96.30;;;;;;5029353;28;20120;-46
2022/04/12 03:22:59;;;;;;;7.00;5.10;;;7.10;96.30;;;;;;5024323;28;20357;-50
2022/04/12 03:25:24;;;;;;;9.52;5.57;;;7.10;96.50;;;;;;5028001;28;20124;-47
2022/04/12 03:27:50;;;;;;;10.90;5.72;;;7.10;96.70;;;;;;5012799;28;20526;-48
2022/04/12 03:30:16;;;;;;;8.48;5.65;;;7.10;96.80;;;;;;5013792;28;20417;-46
2022/04/12 03:32:42;;;;;;;9.13;5.47;;;7.10;96.90;;;;;;5025915;28;20040;-47
2022/04/12 03:35:08;;;;;;;9.48;6.03;;;7.10;97.20;;;;;;5012985;28;20072;-50
2022/04/12 03:37:34;;;;;;;9.80;5.60;;;7.00;96.80;;;;;;5022132;28;20108;-50
2022/04/12 03:40:00;;;;;;;10.02;6.05;;;7.00;96.80;;;;;;5029760;28;20098;-50
2022/04/12 03:42:26;;;;;;;7.85;4.95;;;7.00;96.80;;;;;;5011111;28;20048;-48
2022/04/12 03:44:51;;;;;;;8.65;5.47;;;7.00;96.90;;;;;;5030897;28;20108;-47
2022/04/12 03:47:17;;;;;;;9.52;5.25;;;7.00;96.90;;;;;;5028783;28;20033;-49
2022/04/12 03:49:43;;;;;;;8.73;5.40;;;7.00;97.00;;;;;;5030692;28;20045;-48
2022/04/12 03:52:09;;;;;;;7.57;4.93;;;7.00;97.10;;;;;;5021324;28;20038;-49
2022/04/12 03:54:35;;;;;;;10.20;5.40;;;6.90;97.10;;;;;;5011655;28;20083;-51
2022/04/12 03:57:01;;;;;;;8.93;4.90;;;6.90;97.40;;;;;;5021986;28;20033;-49
2022/04/12 03:59:27;;;;;;;9.18;5.65;;;6.90;97.40;;;;;;5024577;28;20042;-49
2022/04/12 04:01:53;;;;;;;9.18;5.72;;;6.90;97.40;;;;;;5030946;28;20045;-50
2022/04/12 04:04:19;;;;;;;6.97;4.95;;;6.90;97.50;;;;;;5009813;28;20125;-48
2022/04/12 04:06:44;;;;;;;10.90;5.93;;;6.90;97.50;;;;;;5026272;28;20040;-46
2022/04/12 04:09:10;;;;;;;8.27;5.07;;;6.90;97.60;;;;;;5031176;28;20045;-50
2022/04/12 04:11:39;;;;;;;9.32;5.60;;;6.90;97.50;;;;;;5025160;28;20049;-46
2022/04/12 04:14:09;;;;;;;7.28;4.82;;;6.90;97.40;;;;;;5027422;28;20044;-49
2022/04/12 04:16:35;;;;;;;7.50;4.55;;;6.80;97.80;;;;;;5028697;28;20107;-47
2022/04/12 04:19:00;;;;;;;10.25;5.38;;;6.80;97.60;;;;;;5030579;28;20491;-50
2022/04/12 04:21:26;;;;;;;8.15;4.85;;;6.80;97.70;;;;;;5029714;28;20155;-46
2022/04/12 04:23:52;;;;;;;7.95;5.10;;;6.80;97.60;;;;;;5009897;28;20056;-40
2022/04/12 04:26:17;;;;;;;10.48;5.45;;;6.80;97.50;;;;;;5028190;28;20091;-46
2022/04/12 04:28:44;;;;;;;11.55;5.28;;;6.90;97.80;;;;;;5026315;28;20494;-46
2022/04/12 04:31:10;;;;;;;9.88;4.90;;;6.90;97.50;;;;;;5009678;28;20073;-41
2022/04/12 04:33:36;;;;;;;6.68;4.50;;;6.90;97.50;;;;;;5025087;28;20045;-49
2022/04/12 04:36:02;;;;;;;7.30;4.97;;;6.80;97.80;;;;;;5010448;28;20550;-50
2022/04/12 04:38:27;;;;;;;8.45;4.97;;;6.80;97.90;;;;;;5025640;28;20121;-49
2022/04/12 04:40:53;;;;;;;9.27;5.28;;;6.80;97.70;;;;;;5030181;28;20112;-47
2022/04/12 04:43:19;;;;;;;8.95;5.22;;;6.80;98.00;;;;;;5029404;28;20451;-38
2022/04/12 04:45:44;;;;;;;8.00;4.93;;;6.80;97.90;;;;;;5024155;28;20038;-49
2022/04/12 04:48:11;;;;;;;7.90;4.68;;;6.80;97.70;;;;;;5024046;28;20033;-45
2022/04/12 04:50:36;;;;;;;8.10;5.32;;;6.80;97.90;;;;;;5003488;28;20099;-46
2022/04/12 04:53:04;;;;;;;7.47;4.80;;;6.80;97.90;;;;;;5024447;28;20442;-44
2022/04/12 04:55:30;;;;;;;8.02;5.15;;;6.80;97.80;;;;;;5021879;28;20610;-44
2022/04/12 04:57:58;;;;;;;9.32;4.95;;;6.80;97.90;;;;;;5027556;28;20128;-48
2022/04/12 05:00:29;;;;;;;6.13;4.30;;;6.80;97.80;;;;;;5001220;28;20095;-48
2022/04/12 05:02:55;;;;;;;9.07;5.07;;;6.80;97.90;;;;;;5027748;28;20041;-47
2022/04/12 05:05:22;;;;;;;9.15;5.78;;;6.80;97.90;;;;;;5027837;28;20048;-46
2022/04/12 05:07:49;;;;;;;8.63;5.03;;;6.80;97.90;;;;;;5028345;28;20532;-44
2022/04/12 05:10:17;;;;;;;8.95;5.35;;;6.80;98.00;;;;;;5025160;28;20037;-48
2022/04/12 05:12:43;;;;;;;8.63;4.80;;;6.90;98.00;;;;;;5027485;28;20343;-49
2022/04/12 05:15:09;;;;;;;7.20;4.82;;;6.90;98.30;;;;;;5020286;28;20062;-47
2022/04/12 05:17:35;;;;;;;8.73;5.30;;;6.90;98.00;;;;;;5027066;28;20044;-41
2022/04/12 05:20:02;;;;;;;7.40;4.70;;;7.00;98.10;;;;;;5027685;28;20723;-46
2022/04/12 05:22:28;;;;;;;9.98;5.43;;;7.00;98.10;;;;;;5009716;28;20124;-43
2022/04/12 05:24:53;;;;;;;7.72;5.20;;;7.00;97.90;;;;;;5011562;28;20216;-45
2022/04/12 05:27:19;;;;;;;9.90;5.35;;;7.10;97.80;;;;;;5023585;28;20035;-45
2022/04/12 05:29:46;;;;;;;8.52;5.32;;;7.10;97.70;;;;;;5024334;28;20041;-49
2022/04/12 05:32:13;;;;;;;7.60;5.13;;;7.10;97.50;;;;;;5023646;28;20065;-50
2022/04/12 05:34:43;;;;;;;8.93;5.38;;;7.20;97.50;;;;;;5024720;28;20052;-50
2022/04/12 05:37:09;;;;;;;9.60;5.22;;;7.20;97.30;;;;;;5023701;28;20041;-48
2022/04/12 05:39:35;;;;;;;8.05;5.28;;;7.30;97.10;;;;;;5026245;28;20500;-47
2022/04/12 05:42:02;;;;;;;9.38;4.88;;;7.30;96.90;;;;;;5020978;28;20026;-46
2022/04/12 05:44:28;;;;;;;7.47;4.75;;;7.40;96.90;;;;;;5025709;28;20037;-44
2022/04/12 05:46:54;;;;;;;7.30;4.85;;;7.40;96.70;;;;;;5019545;28;20034;-45
2022/04/12 05:49:20;;;;;;;10.05;5.25;;;7.50;96.60;;;;;;5018466;28;20033;-50
2022/04/12 05:51:46;;;;;;;10.32;5.10;;;7.50;96.30;;;;;;5008494;28;20052;-47
2022/04/12 05:54:12;;;;;;;7.43;4.90;;;7.60;96.20;;;;;;5025173;28;20091;-47
2022/04/12 05:56:37;;;;;;;9.30;5.30;;;7.60;96.20;;;;;;5026412;28;20048;-42
2022/04/12 05:59:05;;;;;;;8.70;5.13;;;7.60;96.00;;;;;;5027235;28;20087;-49
2022/04/12 06:01:31;;;;;;;9.07;5.32;;;7.70;95.80;;;;;;5025636;28;20509;-49
2022/04/12 06:03:56;;;;;;;11.73;5.43;;;7.70;95.80;;;;;;5028790;28;20037;-45
2022/04/12 06:06:22;;;;;;;8.00;4.65;;;7.80;95.70;;;;;;5027155;28;20068;-49
2022/04/12 06:08:48;;;;;;;7.80;4.63;;;7.80;95.60;;;;;;5020490;28;20493;-45
2022/04/12 06:11:13;;;;;;;8.82;4.57;;;7.80;95.40;;;;;;5019433;28;20478;-44
2022/04/12 06:13:39;;;;;;;8.63;5.07;;;7.80;95.60;;;;;;5018013;28;20489;-44
2022/04/12 06:16:05;;;;;;;8.30;5.15;;;7.80;95.50;;;;;;5020539;28;20030;-49
2022/04/12 06:18:30;;;;;;;7.22;4.57;;;7.90;95.40;;;;;;5002527;28;20045;-44
2022/04/12 06:20:56;;;;;;;9.02;5.00;;;7.90;95.50;;;;;;5017846;28;20030;-45
2022/04/12 06:23:22;;;;;;;8.75;5.10;;;7.90;95.40;;;;;;5024044;28;20509;-42
2022/04/12 06:25:47;;;;;;;8.23;4.88;;;7.90;95.80;;;;;;5002338;28;20076;-46
2022/04/12 06:28:13;;;;;;;8.10;4.93;;;7.80;96.00;;;;;;5007452;28;20134;-40
2022/04/12 06:30:39;;;;;;;9.60;5.13;;;7.80;95.90;;;;;;5020342;28;20044;-46
2022/04/12 06:33:04;;;;;;;7.00;4.53;;;7.80;96.00;;;;;;5006231;28;20505;-48
2022/04/12 06:35:30;;;;;;;8.27;5.63;;;7.80;96.00;;;;;;5015669;28;20341;-46
2022/04/12 06:37:58;;;;;;;9.57;5.25;;;7.80;96.20;;;;;;4989810;28;20041;-47
2022/04/12 06:40:25;;;;;;;7.95;5.15;;;7.80;96.20;;;;;;5019735;28;20104;-49
2022/04/12 06:42:51;;;;;;;6.85;4.65;;;7.80;96.30;;;;;;5019794;28;20497;-45
2022/04/12 06:45:17;;;;;;;7.75;5.15;;;7.80;96.30;;;;;;5024148;28;20038;-45
2022/04/12 06:47:43;;;;;;;8.30;4.65;;;7.80;96.80;;;;;;5019646;28;20037;-41
2022/04/12 06:50:11;;;;;;;10.63;4.80;;;7.90;96.40;;;;;;5020618;28;20112;-43
2022/04/12 06:52:37;;;;;;;7.50;4.55;;;7.90;96.50;;;;;;5006114;28;20136;-47
2022/04/12 06:55:04;;;;;;;7.95;4.82;;;7.90;96.40;;;;;;5023394;28;20361;-48
2022/04/12 06:57:32;;;;;;;8.80;6.05;;;8.00;96.30;;;;;;5025350;28;20042;-45
2022/04/12 06:59:58;;;;;;;8.27;5.30;;;8.00;96.30;;;;;;5010622;28;20050;-49
2022/04/12 07:02:23;;;;;;;8.80;5.10;;;8.00;96.40;;;;;;5024441;28;20038;-49
2022/04/12 07:04:49;;;;;;;7.25;4.75;;;8.00;96.40;;;;;;5005291;28;20033;-47
2022/04/12 07:07:15;;;;;;;7.32;4.90;;;8.00;96.50;;;;;;5020108;28;20053;-45
2022/04/12 07:09:40;;;;;;;9.93;4.60;;;8.10;96.50;;;;;;4995537;28;20045;-47
2022/04/12 07:12:07;;;;;;;9.80;5.30;;;8.10;96.60;;;;;;5023055;28;21357;-41
2022/04/12 07:14:33;;;;;;;7.93;5.00;;;8.20;96.30;;;;;;5018904;28;20040;-52
2022/04/12 07:16:59;;;;;;;10.05;5.70;;;8.30;96.40;;;;;;5019425;28;20045;-46
2022/04/12 07:19:26;;;;;;;6.82;4.43;;;8.40;96.20;;;;;;5023547;28;20127;-47
2022/04/12 07:21:52;;;;;;;8.13;5.20;;;8.40;96.00;;;;;;5021962;28;20058;-52
2022/04/12 07:24:18;;;;;;;8.10;4.70;;;8.50;95.80;;;;;;5020253;28;20042;-45
2022/04/12 07:26:44;;;;;;;7.25;4.70;;;8.60;95.80;;;;;;5025998;28;20063;-45
2022/04/12 07:29:09;;;;;;;10.05;5.30;;;8.70;95.60;;;;;;5016395;28;20092;-45
2022/04/12 07:31:35;;;;;;;8.80;5.28;;;8.80;95.70;;;;;;5023722;28;20041;-49
2022/04/12 07:34:02;;;;;;;10.25;5.50;;;8.90;95.50;;;;;;5024577;28;20431;-48
2022/04/12 07:36:27;;;;;;;11.32;5.38;;;9.00;95.30;;;;;;5027213;28;20055;-50
2022/04/12 07:38:53;;;;;;;8.65;4.93;;;9.10;94.70;;;;;;5009574;28;20410;-41
2022/04/12 07:41:19;;;;;;;8.10;4.85;;;9.30;94.30;;;;;;5019182;28;20411;-42
2022/04/12 07:43:46;;;;;;;8.63;5.80;;;9.40;94.20;;;;;;5021534;28;20084;-43
2022/04/12 07:46:13;;;;;;;9.18;5.47;;;9.60;93.90;;;;;;5020084;28;20482;-46
2022/04/12 07:48:40;;;;;;;8.07;5.00;;;9.70;93.60;;;;;;5021925;28;20045;-42
2022/04/12 07:51:06;;;;;;;6.82;4.75;;;9.80;93.10;;;;;;5022682;28;20049;-46
2022/04/12 07:53:32;;;;;;;8.38;4.70;;;10.00;92.70;;;;;;5010222;28;20056;-44
2022/04/12 07:55:57;;;;;;;8.35;5.13;;;10.20;91.90;;;;;;5023964;28;20041;-46
2022/04/12 07:58:23;;;;;;;8.10;5.00;;;10.30;91.50;;;;;;5022998;28;20037;-49
2022/04/12 08:00:49;;;;;;;7.32;4.63;;;10.50;90.80;;;;;;5023898;28;20038;-43
2022/04/12 08:03:15;;;;;;;8.00;5.05;;;10.60;90.30;;;;;;5021998;28;20045;-43
2022/04/12 08:05:40;;;;;;;7.32;4.28;;;10.80;89.10;;;;;;5020252;28;20033;-46
2022/04/12 08:08:06;;;;;;;7.35;4.50;;;10.90;88.30;;;;;;5022994;28;20072;-45
2022/04/12 08:10:32;;;;;;;8.73;4.60;;;10.90;87.50;;;;;;5025969;28;20414;-43
2022/04/12 08:12:58;;;;;;;7.53;4.10;;;11.00;84.70;;;;;;5022886;28;20044;-46
2022/04/12 08:15:26;;;;;;;8.15;4.75;;;11.10;85.00;;;;;;5019941;28;20076;-44
2022/04/12 08:17:51;;;;;;;8.48;4.72;;;11.20;82.40;;;;;;5018221;28;20045;-45
2022/04/12 08:20:17;;;;;;;8.52;4.82;;;11.30;81.30;;;;;;5024387;28;20049;-43
2022/04/12 08:22:44;;;;;;;6.75;3.97;;;11.40;81.20;;;;;;5025655;28;20075;-50
2022/04/12 08:25:10;;;;;;;7.78;3.75;;;11.50;79.90;;;;;;5006759;28;20094;-45
2022/04/12 08:27:37;;;;;;;7.05;4.47;;;11.70;81.30;;;;;;5021582;28;20037;-45
2022/04/12 08:30:06;;;;;;;10.50;4.95;;;11.80;78.90;;;;;;5022432;28;20045;-44
2022/04/12 08:32:33;;;;;;;8.80;5.25;;;12.00;78.00;;;;;;5008832;28;20049;-46
2022/04/12 08:34:59;;;;;;;7.50;4.13;;;12.10;76.50;;;;;;5020296;28;20204;-43
2022/04/12 08:37:24;;;;;;;8.93;4.70;;;12.20;77.20;;;;;;5009830;28;20148;-47
2022/04/12 08:39:51;;;;;;;7.60;4.47;;;12.30;77.20;;;;;;5021534;28;20470;-44
2022/04/12 08:42:17;;;;;;;7.97;4.65;;;12.50;73.50;;;;;;5019241;28;20041;-43
2022/04/12 08:44:46;;;;;;;6.35;4.18;;;12.60;72.80;;;;;;5014015;28;20042;-46
2022/04/12 08:47:15;;;;;;;7.90;4.60;;;12.70;71.50;;;;;;5003998;28;20091;-43
2022/04/12 08:49:41;;;;;;;6.57;4.25;;;12.80;71.10;;;;;;5018756;28;20049;-41
2022/04/12 08:52:11;;;;;;;6.72;4.30;;;12.90;71.00;;;;;;5022971;28;20128;-50
2022/04/12 08:54:41;;;;;;;10.20;4.63;;;13.00;70.70;;;;;;5021917;28;20049;-50
2022/04/12 08:57:08;;;;;;;6.70;4.18;;;13.10;70.30;;;;;;5005698;28;20045;-47
2022/04/12 08:59:34;;;;;;;7.45;4.25;;;13.20;70.10;;;;;;5022487;28;20046;-51
2022/04/12 09:01:59;;;;;;;7.63;4.45;;;13.40;70.10;;;;;;5020934;28;20038;-47
2022/04/12 09:04:28;;;;;;;6.78;3.88;;;13.40;69.10;;;;;;5018713;28;20025;-48
2022/04/12 09:06:58;;;;;;;9.25;3.80;;;13.50;68.10;;;;;;5017779;28;20075;-50
2022/04/12 09:09:26;;;;;;;11.45;4.20;;;13.50;68.20;;;;;;5022542;28;20041;-50
2022/04/12 09:12:06;;;;;;;7.28;4.13;;;13.60;67.50;;;;;;5018295;28;20051;-50
2022/04/12 09:14:52;;;;;;;6.90;4.57;;;13.70;66.40;;;;;;5021907;28;20069;-51
2022/04/12 09:17:30;;;;;;;6.20;3.75;;;13.90;66.50;;;;;;5005118;28;20402;-52
2022/04/12 09:19:55;;;;;;;7.03;4.32;;;14.00;67.20;;;;;;5016937;28;20050;-50
2022/04/12 09:22:26;;;;;;;5.93;3.50;;;14.20;67.20;;;;;;5022763;28;20130;-48
2022/04/12 09:24:54;;;;;;;6.53;3.92;;;14.30;65.40;;;;;;5022918;28;20113;-51
2022/04/12 09:27:22;;;;;;;6.00;3.50;;;14.40;65.60;;;;;;5025847;28;20087;-49
2022/04/12 09:29:53;;;;;;;7.20;3.42;;;14.50;63.80;;;;;;5021220;28;20134;-50
2022/04/12 09:32:26;;;;;;;6.75;3.60;;;14.60;63.70;;;;;;5022035;28;20037;-52
2022/04/12 09:34:53;;;;;;;6.78;3.85;;;14.80;61.50;;;;;;5011640;28;20062;-51
2022/04/12 09:37:27;;;;;;;6.47;3.97;;;14.90;60.70;;;;;;5020043;28;20042;-45
2022/04/12 09:39:59;;;;;;;6.90;3.80;;;15.10;58.80;;;;;;5015905;28;20037;-50
2022/04/12 09:42:38;;;;;;;7.57;3.53;;;15.10;57.90;;;;;;5004075;28;20133;-47
2022/04/12 09:45:05;;;;;;;6.50;3.67;;;15.20;58.50;;;;;;5021396;28;20124;-50
2022/04/12 09:47:32;;;;;;;6.45;3.25;;;15.20;58.70;;;;;;5027481;28;20048;-50
2022/04/12 09:49:59;;;;;;;6.00;3.70;;;15.30;59.10;;;;;;5022720;28;20533;-51
2022/04/12 09:52:25;;;;;;;6.28;3.75;;;15.40;58.30;;;;;;5017693;28;20050;-49
2022/04/12 09:54:51;;;;;;;7.55;3.60;;;15.50;56.80;;;;;;5021768;28;20056;-51
2022/04/12 09:57:17;;;;;;;6.72;3.50;;;15.50;57.90;;;;;;5021114;28;20045;-50
2022/04/12 09:59:44;;;;;;;6.03;3.45;;;15.60;57.40;;;;;;5005973;28;20046;-50
2022/04/12 10:02:11;;;;;;;6.20;3.65;;;15.70;57.60;;;;;;5021802;28;20124;-49
2022/04/12 10:04:38;;;;;;;5.78;3.30;;;15.80;57.50;;;;;;5018145;28;20041;-48
2022/04/12 10:07:06;;;;;;;6.05;3.50;;;15.90;56.80;;;;;;5015268;28;20036;-49
2022/04/12 10:09:36;;;;;;;6.90;3.92;;;16.00;56.30;;;;;;5003071;28;20053;-50
2022/04/12 10:12:02;;;;;;;7.47;3.83;;;16.10;56.00;;;;;;5022922;28;20459;-49
2022/04/12 10:14:29;;;;;;;6.78;3.65;;;16.20;55.80;;;;;;5022778;28;20124;-48
2022/04/12 10:16:56;;;;;;;6.45;3.55;;;16.20;55.60;;;;;;5022776;28;20034;-40
2022/04/12 10:19:23;;;;;;;5.60;3.30;;;16.30;56.20;;;;;;5014720;28;20072;-49
2022/04/12 10:21:49;;;;;;;6.68;3.53;;;16.40;56.40;;;;;;5006337;28;20045;-51
2022/04/12 10:24:15;;;;;;;5.72;3.42;;;16.50;56.20;;;;;;5018493;28;20041;-49
2022/04/12 10:26:45;;;;;;;7.40;3.67;;;16.60;55.90;;;;;;4999048;28;20044;-48
2022/04/12 10:29:11;;;;;;;5.18;2.78;;;16.80;54.80;;;;;;5019298;28;20045;-48
2022/04/12 10:31:37;;;;;;;5.68;3.38;;;16.90;55.60;;;;;;5015333;28;20099;-46
2022/04/12 10:34:04;;;;;;;7.10;3.53;;;17.00;55.50;;;;;;5015716;28;20444;-47
2022/04/12 10:36:54;;;;;;;6.45;3.83;;;17.10;54.00;;;;;;5017350;28;20069;-46
2022/04/12 10:39:21;;;;;;;7.57;3.50;;;17.30;54.00;;;;;;5017161;28;20410;-44
2022/04/12 10:41:50;;;;;;;5.93;3.40;;;17.40;54.40;;;;;;5018800;28;20034;-43
2022/04/12 10:44:20;;;;;;;6.03;3.60;;;17.50;52.80;;;;;;5020890;28;20060;-47
2022/04/12 10:46:51;;;;;;;7.75;3.22;;;17.60;51.90;;;;;;5021695;28;20116;-46
2022/04/12 10:49:20;;;;;;;5.97;3.55;;;17.60;50.70;;;;;;5023164;28;20046;-48
2022/04/12 10:51:54;;;;;;;7.82;4.10;;;17.60;51.00;;;;;;5017209;28;20462;-46
2022/04/12 10:54:31;;;;;;;8.90;3.85;;;17.70;51.30;;;;;;5023334;28;20048;-51
2022/04/12 10:57:18;;;;;;;6.05;3.58;;;17.70;51.50;;;;;;5024987;28;20042;-47
2022/04/12 10:59:59;;;;;;;6.00;3.78;;;17.80;52.00;;;;;;5016148;28;20057;-48
2022/04/12 11:02:30;;;;;;;5.88;3.35;;;18.00;52.00;;;;;;5013067;28;20402;-43
2022/04/12 11:04:56;;;;;;;5.65;3.63;;;18.10;50.10;;;;;;5018780;28;20037;-50
2022/04/12 11:07:30;;;;;;;5.47;3.50;;;18.30;50.60;;;;;;5017160;28;22524;-48
2022/04/12 11:10:11;;;;;;;7.28;4.05;;;18.40;50.50;;;;;;5015497;28;20124;-47
2022/04/12 11:12:44;;;;;;;7.25;3.88;;;18.50;50.40;;;;;;5013936;28;20135;-46
2022/04/12 11:15:37;;;;;;;9.00;4.25;;;18.60;50.50;;;;;;5016422;28;20482;-48
2022/04/12 11:18:14;;;;;;;6.13;3.88;;;18.70;49.70;;;;;;5020030;28;20204;-50
2022/04/12 11:20:57;;;;;;;6.85;3.70;;;18.80;49.30;;;;;;5019627;28;20045;-50
2022/04/12 11:23:44;;;;;;;6.18;3.63;;;18.70;48.90;;;;;;5022542;28;20034;-50
2022/04/12 11:26:37;;;;;;;7.07;3.95;;;18.70;49.10;;;;;;5017540;28;20152;-45
2022/04/12 11:29:10;;;;;;;7.55;4.03;;;18.70;50.60;;;;;;5009252;28;20052;-47
2022/04/12 11:31:40;;;;;;;8.95;3.80;;;18.80;50.40;;;;;;5020069;28;20474;-44
2022/04/12 11:34:07;;;;;;;7.13;4.03;;;18.90;50.30;;;;;;5024201;28;20099;-50
2022/04/12 11:36:34;;;;;;;7.53;3.65;;;19.00;49.70;;;;;;5027918;28;20417;-50
2022/04/12 11:38:59;;;;;;;7.00;4.18;;;19.10;49.80;;;;;;5036509;28;20105;-51
2022/04/12 11:41:28;;;;;;;7.63;4.05;;;19.30;48.70;;;;;;5026161;28;20057;-50
2022/04/12 11:44:04;;;;;;;9.48;4.22;;;19.30;47.90;;;;;;5031498;28;20056;-44
2022/04/12 11:46:31;;;;;;;8.48;4.00;;;19.40;48.90;;;;;;5024783;28;20044;-51
2022/04/12 11:49:04;;;;;;;8.55;4.35;;;19.50;49.00;;;;;;5023031;28;20545;-47
2022/04/12 11:51:30;;;;;;;6.95;4.20;;;19.70;48.00;;;;;;5036114;28;20092;-47
2022/04/12 11:53:56;;;;;;;7.20;4.55;;;19.80;46.70;;;;;;5031354;28;20117;-41
2022/04/12 11:56:22;;;;;;;9.02;4.70;;;19.80;47.00;;;;;;5031181;28;20456;-47
2022/04/12 11:58:47;;;;;;;9.13;4.60;;;19.70;46.00;;;;;;5030387;28;20570;-48
2022/04/12 12:01:13;;;;;;;7.40;4.20;;;19.80;47.30;;;;;;5029935;28;20517;-48
2022/04/12 12:03:42;;;;;;;6.57;4.25;;;19.90;46.70;;;;;;5033299;28;20564;-46
2022/04/12 12:06:08;;;;;;;7.22;4.47;;;20.00;46.10;;;;;;5012786;28;20074;-50
2022/04/12 12:08:34;;;;;;;7.95;4.15;;;20.00;46.00;;;;;;5033898;28;20137;-46
2022/04/12 12:11:11;;;;;;;6.25;3.95;;;20.00;45.90;;;;;;5029774;28;20129;-48
2022/04/12 12:13:37;;;;;;;7.30;4.45;;;20.20;47.00;;;;;;5007767;28;20077;-47
2022/04/12 12:16:14;;;;;;;7.30;4.55;;;20.30;45.60;;;;;;5030506;28;20092;-51
2022/04/12 12:18:40;;;;;;;7.40;4.25;;;20.40;46.10;;;;;;4995710;28;20041;-47
2022/04/12 12:21:05;;;;;;;7.90;4.30;;;20.60;45.70;;;;;;5030604;28;20103;-45
2022/04/12 12:23:31;;;;;;;6.40;4.05;;;20.70;45.00;;;;;;5025459;28;20041;-44
2022/04/12 12:25:57;;;;;;;7.75;4.35;;;20.70;44.80;;;;;;5029080;28;20037;-50
2022/04/12 12:28:25;;;;;;;6.25;3.67;;;20.70;44.70;;;;;;5031466;28;20479;-47
2022/04/12 12:31:04;;;;;;;6.13;4.00;;;20.60;44.60;;;;;;5012816;28;20103;-49
2022/04/12 12:33:46;;;;;;;6.82;4.45;;;20.60;45.20;;;;;;5029822;28;20087;-49
2022/04/12 12:36:23;;;;;;;6.80;4.40;;;20.60;45.30;;;;;;5026716;28;20179;-49
2022/04/12 12:38:50;;;;;;;6.30;3.83;;;20.60;45.60;;;;;;5027639;28;20029;-50
2022/04/12 12:41:32;;;;;;;9.75;4.88;;;20.50;46.40;;;;;;5026265;28;20040;-47
2022/04/12 12:44:03;;;;;;;8.00;4.85;;;20.50;45.30;;;;;;5011642;28;20719;-44
2022/04/12 12:46:34;;;;;;;7.85;4.50;;;20.30;46.20;;;;;;5016515;28;20044;-44
2022/04/12 12:49:18;;;;;;;6.32;3.83;;;20.20;46.30;;;;;;5027013;28;20535;-51
2022/04/12 12:51:44;;;;;;;8.18;4.72;;;20.10;46.20;;;;;;5029854;28;20171;-51
2022/04/12 12:54:15;;;;;;;8.00;4.43;;;20.10;46.60;;;;;;5027576;28;20041;-43